Time;durP1;ratioP1;P1;durP2;ratioP2;P2;SDS_P1;SDS_P2;PMS_P1;PMS_P2;Temp;Humidity;BMP_temperature;BMP_pressure;BME280_temperature;BME280_humidity;BME280_pressure;Samples;Min_cycle;Max_cycle;Signal;HPM_P1;HPM_P2
2022/05/07 06:20:03;;;;;;;21.13;18.17;;;;;;;;;;4978179;28;20394;-93
2022/05/07 06:22:53;;;;;;;21.63;19.40;;;;;;;;;;4974405;28;20498;-92
2022/05/07 06:29:19;;;;;;;22.05;19.85;;;;;;;;;;4276024;28;10001641;-90
2022/05/07 06:32:24;;;;;;;21.50;19.47;;;;;;;;;;4986619;28;20194;-90
2022/05/07 06:43:25;;;;;;;22.80;20.33;;;;;;;;;;5687414;23;20502;-93
2022/05/07 06:59:01;;;;;;;26.63;23.93;;;;;;;;;;5368849;23;20489;-94
2022/05/07 07:50:31;;;;;;;24.40;21.87;;;;;;;;;;5004657;28;20498;-94
2022/05/07 07:53:36;;;;;;;22.13;19.97;;;;;;;;;;5013549;28;21003;-91
2022/05/07 07:56:44;;;;;;;23.67;21.63;;;;;;;;;;5004817;28;20419;-92
2022/05/07 07:59:50;;;;;;;22.87;20.87;;;;;;;;;;4982622;28;20429;-91
2022/05/07 08:02:56;;;;;;;23.77;21.40;;;;;;;;;;4994941;28;20462;-90
2022/05/07 08:06:01;;;;;;;22.50;20.50;;;;;;;;;;4997325;28;20480;-92
2022/05/07 08:11:56;;;;;;;22.93;20.93;;;;;;;;;;4972111;28;20527;-90
2022/05/07 08:15:11;;;;;;;23.10;21.10;;;;;;;;;;4929227;29;20504;-96
2022/05/07 08:53:02;;;;;;;20.70;18.90;;;;;;;;;;5508358;23;20734;-92
2022/05/07 09:23:01;;;;;;;17.90;16.30;;;;;;;;;;4954054;28;20461;-95
2022/05/07 09:26:08;;;;;;;15.83;14.20;;;;;;;;;;5276260;23;20466;-96
2022/05/07 09:29:14;;;;;;;15.33;14.03;;;;;;;;;;4994688;28;20540;-92
2022/05/07 09:45:26;;;;;;;16.30;14.93;;;;;;;;;;5227392;23;20498;-91
2022/05/07 09:48:38;;;;;;;17.37;15.80;;;;;;;;;;5022544;28;20964;-94
2022/05/07 09:57:35;;;;;;;18.20;16.70;;;;;;;;;;5080315;23;20510;-92
2022/05/07 10:22:43;;;;;;;19.07;17.10;;;;;;;;;;5119478;23;20479;-91
2022/05/07 10:26:02;;;;;;;18.33;16.60;;;;;;;;;;5030252;28;20478;-94
2022/05/07 10:29:03;;;;;;;20.43;18.63;;;;;;;;;;5030790;28;20456;-94
2022/05/07 10:32:07;;;;;;;24.20;22.17;;;;;;;;;;5043662;28;20453;-90
2022/05/07 10:35:14;;;;;;;17.13;15.73;;;;;;;;;;5044800;28;20931;-96
2022/05/07 10:38:28;;;;;;;18.43;16.80;;;;;;;;;;5050848;28;20438;-95
2022/05/07 10:41:17;;;;;;;17.43;15.93;;;;;;;;;;5035825;28;20443;-92
2022/05/07 10:44:22;;;;;;;18.13;16.43;;;;;;;;;;5030688;28;20471;-95
2022/05/07 10:47:22;;;;;;;15.93;14.67;;;;;;;;;;4686897;28;10000674;-94
2022/05/07 10:50:40;;;;;;;17.20;15.50;;;;;;;;;;5004867;28;20587;-95
2022/05/07 10:53:43;;;;;;;16.30;14.53;;;;;;;;;;5006209;28;20454;-95
2022/05/07 10:56:55;;;;;;;17.93;16.43;;;;;;;;;;5024841;28;20434;-93
2022/05/07 11:00:01;;;;;;;18.20;16.70;;;;;;;;;;5025194;28;20502;-93
2022/05/07 11:03:12;;;;;;;18.10;16.40;;;;;;;;;;5016115;28;20399;-96
2022/05/07 11:06:22;;;;;;;17.50;16.10;;;;;;;;;;5036052;28;20470;-91
2022/05/07 11:09:28;;;;;;;18.90;17.30;;;;;;;;;;5027854;28;20435;-93
2022/05/07 11:12:41;;;;;;;18.40;16.90;;;;;;;;;;5026109;28;20423;-95
2022/05/07 11:15:50;;;;;;;17.33;15.83;;;;;;;;;;5050627;23;20613;-93
2022/05/07 11:18:53;;;;;;;19.93;15.87;;;;;;;;;;5028190;28;20433;-87
2022/05/07 11:21:59;;;;;;;17.83;16.30;;;;;;;;;;5010097;28;20420;-94
2022/05/07 11:25:09;;;;;;;16.43;14.80;;;;;;;;;;5015003;28;20514;-93
2022/05/07 11:28:10;;;;;;;18.43;16.90;;;;;;;;;;5010191;28;20412;-90
2022/05/07 11:31:24;;;;;;;16.80;15.47;;;;;;;;;;5123516;23;20592;-96
2022/05/07 11:34:40;;;;;;;16.70;15.27;;;;;;;;;;5029790;28;20428;-94
2022/05/07 11:37:48;;;;;;;17.73;15.93;;;;;;;;;;5033615;28;20442;-94
2022/05/07 11:40:52;;;;;;;16.23;14.97;;;;;;;;;;5092208;23;20486;-93
2022/05/07 11:46:52;;;;;;;15.33;14.00;;;;;;;;;;5010122;28;20439;-91
2022/05/07 11:50:02;;;;;;;14.87;13.77;;;;;;;;;;5024584;28;20431;-93
2022/05/07 11:56:01;;;;;;;17.20;15.40;;;;;;;;;;5128941;23;20500;-93
2022/05/07 11:59:05;;;;;;;16.23;14.73;;;;;;;;;;4989094;28;20421;-95
2022/05/07 12:02:10;;;;;;;15.27;14.10;;;;;;;;;;4989753;28;20492;-92
2022/05/07 12:05:37;;;;;;;16.93;15.60;;;;;;;;;;5000424;28;20515;-94
2022/05/07 12:08:28;;;;;;;17.30;16.00;;;;;;;;;;5067202;23;20586;-94
2022/05/07 12:11:16;;;;;;;17.50;16.00;;;;;;;;;;5011595;28;20474;-93
2022/05/07 12:14:02;;;;;;;18.60;16.90;;;;;;;;;;5136136;23;20486;-93
2022/05/07 12:20:13;;;;;;;17.20;14.67;;;;;;;;;;5032272;28;20438;-94
2022/05/07 12:32:29;;;;;;;14.60;13.27;;;;;;;;;;5028281;28;20481;-93
2022/05/07 12:35:32;;;;;;;14.33;13.13;;;;;;;;;;5012345;28;20563;-95
2022/05/07 12:38:39;;;;;;;14.77;13.67;;;;;;;;;;5019515;28;20443;-95
2022/05/07 12:41:45;;;;;;;14.90;13.70;;;;;;;;;;5022854;28;20454;-89
2022/05/07 12:44:51;;;;;;;15.13;14.03;;;;;;;;;;4992770;28;20495;-94
2022/05/07 12:47:57;;;;;;;15.57;14.10;;;;;;;;;;5013461;28;20461;-95
2022/05/07 12:54:28;;;;;;;16.83;15.10;;;;;;;;;;4983879;28;20434;-91
2022/05/07 15:24:28;;;;;;;10.00;9.40;;;;;;;;;;4585634;23;20496;-92
2022/05/07 15:43:08;;;;;;;7.03;6.60;;;;;;;;;;4152337;23;20545;-90
2022/05/07 15:49:22;;;;;;;8.67;7.87;;;;;;;;;;5219951;23;20491;-92
2022/05/07 16:50:33;;;;;;;24.70;22.43;;;;;;;;;;5165025;22;25019609;-91
2022/05/07 16:53:42;;;;;;;23.57;21.33;;;;;;;;;;6235715;23;20182;-92
2022/05/07 17:02:16;;;;;;;25.90;23.47;;;;;;;;;;6257147;22;20522;-88
2022/05/07 17:05:28;;;;;;;26.73;24.13;;;;;;;;;;6272875;23;20400;-91
2022/05/07 17:16:24;;;;;;;29.30;26.50;;;;;;;;;;6245199;22;20441;-92
2022/05/07 17:19:33;;;;;;;30.27;27.20;;;;;;;;;;6239488;23;20397;-93
2022/05/07 17:22:41;;;;;;;28.00;25.30;;;;;;;;;;6243003;23;20437;-92
2022/05/07 17:29:43;;;;;;;29.47;26.60;;;;;;;;;;6234851;22;20447;-94
2022/05/07 17:32:51;;;;;;;28.63;26.00;;;;;;;;;;6307133;22;20400;-94
2022/05/07 17:35:57;;;;;;;27.93;25.23;;;;;;;;;;6294876;22;20391;-93
2022/05/07 17:39:25;;;;;;;28.40;25.70;;;;;;;;;;6267894;22;20543;-93
2022/05/07 17:42:35;;;;;;;31.47;28.57;;;;;;;;;;6262181;23;20417;-95
2022/05/07 17:45:29;;;;;;;30.93;27.90;;;;;;;;;;6257202;23;20389;-95
2022/05/07 17:51:41;;;;;;;31.93;28.77;;;;;;;;;;6252207;23;20433;-93
2022/05/07 17:54:57;;;;;;;27.37;24.87;;;;;;;;;;6254739;23;20381;-94
2022/05/07 17:58:05;;;;;;;30.50;27.63;;;;;;;;;;6260636;23;20813;-93
2022/05/07 18:01:23;;;;;;;31.33;28.47;;;;;;;;;;6260142;23;20388;-93
2022/05/07 18:04:29;;;;;;;34.03;30.57;;;;;;;;;;6267688;22;20482;-93
2022/05/07 18:07:44;;;;;;;31.67;28.80;;;;;;;;;;6290575;22;20465;-94
2022/05/07 18:10:50;;;;;;;29.10;26.27;;;;;;;;;;6295962;22;20460;-92
2022/05/07 18:13:57;;;;;;;30.27;27.77;;;;;;;;;;6294815;22;20390;-93
2022/05/07 18:17:02;;;;;;;28.10;25.33;;;;;;;;;;6295927;22;20381;-93
2022/05/07 18:20:15;;;;;;;27.37;24.67;;;;;;;;;;6297434;22;20420;-92
2022/05/07 18:23:14;;;;;;;29.97;27.30;;;;;;;;;;6296761;22;20444;-91
2022/05/07 18:26:23;;;;;;;30.43;27.63;;;;;;;;;;6294612;22;20439;-93
2022/05/07 18:32:40;;;;;;;33.57;30.30;;;;;;;;;;6284538;22;20361;-92
2022/05/07 18:35:46;;;;;;;33.63;30.20;;;;;;;;;;6295074;22;20470;-94
2022/05/07 18:45:08;;;;;;;31.57;28.37;;;;;;;;;;6290366;22;20419;-94
2022/05/07 18:48:32;;;;;;;32.67;29.57;;;;;;;;;;6295445;22;20379;-94
2022/05/07 22:30:36;;;;;;;22.63;20.50;;;;;;;;;;6252183;22;20457;-95
2022/05/07 22:33:42;;;;;;;23.10;20.50;;;;;;;;;;6249816;23;20397;-95
2022/05/07 22:37:01;;;;;;;28.30;21.77;;;;;;;;;;6251957;23;20373;-93
2022/05/07 22:40:08;;;;;;;25.40;22.70;;;;;;;;;;6251486;23;20412;-94
2022/05/07 23:14:29;;;;;;;26.60;23.80;;;;;;;;;;6241335;22;20453;-94
2022/05/07 23:17:56;;;;;;;27.83;24.97;;;;;;;;;;6232837;23;20975;-93
2022/05/07 23:25:54;;;;;;;28.17;25.27;;;;;;;;;;6249388;22;20776;-94
2022/05/07 23:31:52;;;;;;;30.20;27.17;;;;;;;;;;6154624;23;20408;-94
2022/05/07 23:58:23;;;;;;;22.23;19.60;;;;;;;;;;6257528;22;20437;-94
